Lehigh Valley International Airport
KABE : now visible

Airfield :











YOU CAN JOIN US ON...

 
LOGIN :

Register | Disclaimer

   EN    FR    IT 

 









Legend :    VFR   Marginal VFR   IFR   Intensive IFR   Very Intensive IFR
Visi :
Ceiling :
>= 8 km
>= 3000ft
5 to 8 km
1000 to 3000 ft
1500m to 5 km
500 to 1000 ft
800 to 1500m
200 to 500 ft
< 800m
< 200 ft
Symbols :   Thunderstorms  Fog  Heavy snow  Heavy precipitations  Wind > 20 kt






- Airport Elevation : 393 ft
- IATA code : ABE


KABE - Lehigh Valley International

CURRENT METAR :
  • 200051Z 22004KT 10SM OVC020 12/08 A3005 RMK AO2 SLP177 T01170078

EXPIRED METARs :
  • 192351Z 18004KT 10SM OVC020 12/08 A3003 RMK AO2 SLP171 60001 T01170078 10122 20117 55000
  • 192251Z 00000KT 10SM OVC022 12/08 A3003 RMK AO2 SLP170 T01170078
  • 192151Z 14004KT 10SM OVC023 12/07 A3003 RMK AO2 RAE07 SLP171 P0000 T01170072
  • 192051Z 16007KT 10SM -RA BKN023 OVC090 12/07 A3003 RMK AO2 RAB06 SLP171 P0001 60001 T01170072 56027

TAF KABE
Valid from the 20 at 00:00 until the 21 at 00:00 UTC


192323Z 2000/2024 16007KT P6SM OVC015
FM200600 21005KT 6SM -SHRA BR OVC009
FM201100 29005KT P6SM OVC050
FM201800 27011G19KT P6SM FEW090
KZNY FIR / North America



MET'MAP, your aeronautical weather chart ! - Copyright ORBIFLY December 2007 - Disclaimer

ORBIFLY MET'MAP TEAM :

Programming & Development : Alexandra Zaïnal
Original concept : Baudouin d'Aumeries
Technical & hardware support : Manuel Goepfert
Assistance : Marc-Olivier Méhu




SOURCES & CREDITS :

   NOAA       Earth
Advisory